Powys, Pennsylvania
Current Conditions -  °F | °C
As of 1:54 AM on Thursday 23 Oct 2014 (Local Time) from KIPT Reporting Station
Overcast Overcast  
Wind Chill: 51°   Ceiling: 2300
Heat Index: 51°   Visibility: 10mi
Dew Point: 41°   Wind: 10mph
Humidity: 68%   Direction: 330°NNW
Pressure: 29.96"   Gusts: 18mph
Location:  41.3181°N, 77.075°W
Report Text: KIPT 230554Z AUTO 33009G16KT 10SM OVC023 11/05 A2996 RMK AO2 SLP146 T01060050 10111 20100 56015
Loading
Personal Weather Stations






























Interactive Weather Map
Tropical Storm Tracking
New forecast layout! Learn more

10-Day Weather Forecast

Advertisements
Track Severe Weather on mobile